Time;durP1;ratioP1;P1;durP2;ratioP2;P2;SDS_P1;SDS_P2;PMS_P1;PMS_P2;Temp;Humidity;BMP_temperature;BMP_pressure;BME280_temperature;BME280_humidity;BME280_pressure;Samples;Min_cycle;Max_cycle;Signal;HPM_P1;HPM_P2
2022/07/31 00:00:08;;;;;;;12.18;4.38;;;18.30;99.90;;;;;;5021581;28;20099;-75
2022/07/31 00:02:35;;;;;;;10.10;4.65;;;18.40;99.90;;;;;;5018376;28;20184;-76
2022/07/31 00:05:01;;;;;;;8.98;4.35;;;18.40;99.90;;;;;;5027012;28;20041;-75
2022/07/31 00:07:26;;;;;;;12.52;4.72;;;18.40;99.90;;;;;;5024653;28;20038;-76
2022/07/31 00:09:54;;;;;;;9.00;4.25;;;18.40;99.90;;;;;;5024383;28;20064;-76
2022/07/31 00:12:20;;;;;;;7.75;5.05;;;18.40;99.90;;;;;;5017687;28;20056;-76
2022/07/31 00:14:46;;;;;;;8.60;4.78;;;18.40;99.90;;;;;;5023012;28;20044;-76
2022/07/31 00:17:12;;;;;;;7.70;4.30;;;18.40;99.90;;;;;;5019009;28;20049;-76
2022/07/31 00:19:38;;;;;;;7.72;4.47;;;18.40;99.90;;;;;;5026150;28;20107;-76
2022/07/31 00:22:04;;;;;;;7.65;4.18;;;18.40;99.90;;;;;;5019700;28;20184;-76
2022/07/31 00:24:30;;;;;;;7.50;4.55;;;18.50;99.90;;;;;;5025183;28;20486;-76
2022/07/31 00:26:55;;;;;;;5.72;4.40;;;18.50;99.90;;;;;;5024947;28;20046;-76
2022/07/31 00:29:21;;;;;;;5.95;4.20;;;18.50;99.90;;;;;;5023324;28;20077;-76
2022/07/31 00:31:47;;;;;;;6.88;4.90;;;18.50;99.90;;;;;;5023603;28;20096;-76
2022/07/31 00:34:12;;;;;;;6.95;4.70;;;18.50;99.90;;;;;;5025037;28;20421;-76
2022/07/31 00:36:38;;;;;;;6.32;4.30;;;18.50;99.90;;;;;;5022154;28;20087;-76
2022/07/31 00:39:04;;;;;;;7.55;4.90;;;18.50;99.90;;;;;;5019734;28;20038;-75
2022/07/31 00:41:41;;;;;;;6.43;4.88;;;18.50;99.90;;;;;;5022641;28;20041;-76
2022/07/31 00:44:08;;;;;;;8.40;4.57;;;18.50;99.90;;;;;;5023486;28;20133;-75
2022/07/31 00:46:34;;;;;;;7.43;5.13;;;18.50;99.90;;;;;;5024547;28;20096;-76
2022/07/31 00:49:00;;;;;;;9.40;5.15;;;18.40;99.90;;;;;;5025626;28;20044;-75
2022/07/31 00:51:26;;;;;;;7.82;4.57;;;18.50;99.90;;;;;;5024518;28;20402;-75
2022/07/31 00:53:51;;;;;;;6.85;4.53;;;18.40;99.90;;;;;;5029185;28;20500;-75
2022/07/31 00:56:17;;;;;;;5.70;4.70;;;18.40;99.90;;;;;;5029888;28;20480;-75
2022/07/31 00:58:43;;;;;;;8.98;5.20;;;18.40;99.90;;;;;;5026915;28;20050;-76
2022/07/31 01:01:08;;;;;;;11.38;5.57;;;18.40;99.90;;;;;;5024456;28;20057;-76
2022/07/31 01:03:34;;;;;;;7.88;4.90;;;18.40;99.90;;;;;;5026065;28;20185;-77
2022/07/31 01:06:00;;;;;;;8.48;4.85;;;18.30;99.90;;;;;;5030028;28;20432;-75
2022/07/31 01:08:26;;;;;;;7.47;5.22;;;18.40;99.90;;;;;;5026809;28;20073;-75
2022/07/31 01:11:01;;;;;;;7.80;5.32;;;18.30;99.90;;;;;;5030862;28;20070;-76
2022/07/31 01:13:51;;;;;;;8.60;5.40;;;18.40;99.90;;;;;;5024103;28;20049;-76
2022/07/31 01:16:17;;;;;;;6.63;4.88;;;18.40;99.90;;;;;;5026444;28;20053;-76
2022/07/31 01:18:44;;;;;;;6.75;5.35;;;18.40;99.90;;;;;;5030992;28;20068;-75
2022/07/31 01:21:19;;;;;;;7.45;4.90;;;18.40;99.90;;;;;;5025495;28;20076;-76
2022/07/31 01:24:07;;;;;;;7.85;5.22;;;18.30;99.90;;;;;;5028394;28;20338;-76
2022/07/31 01:26:54;;;;;;;8.40;5.32;;;18.30;99.90;;;;;;5023827;28;20041;-76
2022/07/31 01:29:27;;;;;;;5.75;4.85;;;18.20;99.90;;;;;;5027133;28;20540;-76
2022/07/31 01:32:03;;;;;;;7.18;4.80;;;18.20;99.90;;;;;;5025850;28;20319;-76
2022/07/31 01:34:38;;;;;;;7.35;5.32;;;18.20;99.90;;;;;;5030268;28;20045;-76
2022/07/31 01:37:39;;;;;;;10.05;5.70;;;18.20;99.90;;;;;;5027230;28;20523;-75
2022/07/31 01:40:12;;;;;;;8.25;4.97;;;18.20;99.90;;;;;;5022631;28;20095;-76
2022/07/31 01:42:43;;;;;;;11.55;5.70;;;18.20;99.90;;;;;;5026870;28;20123;-76
2022/07/31 01:45:11;;;;;;;9.07;4.80;;;18.10;99.90;;;;;;5023147;28;20072;-76
2022/07/31 01:47:38;;;;;;;9.02;5.30;;;18.20;99.90;;;;;;5030081;28;20500;-76
2022/07/31 01:50:06;;;;;;;9.55;5.18;;;18.10;99.90;;;;;;5021652;28;20120;-76
2022/07/31 01:52:33;;;;;;;13.25;4.80;;;18.20;99.90;;;;;;5028384;28;20121;-75
2022/07/31 01:55:01;;;;;;;6.80;5.00;;;18.20;99.90;;;;;;5023151;28;20054;-75
2022/07/31 01:57:29;;;;;;;9.05;5.25;;;18.10;99.90;;;;;;5024796;28;20045;-76
2022/07/31 01:59:58;;;;;;;7.93;4.63;;;18.20;99.90;;;;;;5027403;28;20069;-76
2022/07/31 02:02:27;;;;;;;8.23;4.85;;;18.20;99.90;;;;;;5026799;28;20396;-75
2022/07/31 02:04:54;;;;;;;6.47;5.03;;;18.20;99.90;;;;;;5021684;28;20505;-75
2022/07/31 02:07:21;;;;;;;6.80;4.85;;;18.20;99.90;;;;;;5027661;28;20073;-75
2022/07/31 02:09:47;;;;;;;9.25;4.78;;;18.20;99.90;;;;;;5028719;28;20041;-76
2022/07/31 02:12:13;;;;;;;9.65;4.93;;;18.20;99.90;;;;;;5022398;28;20292;-76
2022/07/31 02:14:41;;;;;;;7.38;4.35;;;18.20;99.90;;;;;;5025371;28;20037;-75
2022/07/31 02:17:08;;;;;;;7.68;4.60;;;18.10;99.90;;;;;;5027863;28;20452;-75
2022/07/31 02:19:39;;;;;;;7.15;4.75;;;18.20;99.90;;;;;;5025880;28;20038;-75
2022/07/31 02:22:05;;;;;;;7.50;5.05;;;18.10;99.90;;;;;;5027452;28;20057;-75
2022/07/31 02:24:32;;;;;;;6.50;5.15;;;18.10;99.90;;;;;;5027383;28;20444;-75
2022/07/31 02:26:58;;;;;;;9.23;5.60;;;18.10;99.90;;;;;;5024771;28;20505;-75
2022/07/31 02:29:27;;;;;;;8.60;5.25;;;18.10;99.90;;;;;;5024424;28;20077;-75
2022/07/31 02:31:54;;;;;;;9.77;5.60;;;18.00;99.90;;;;;;5026947;28;20040;-76
2022/07/31 02:34:22;;;;;;;11.55;5.43;;;18.10;99.90;;;;;;5022430;28;20517;-75
2022/07/31 02:36:49;;;;;;;8.10;4.93;;;18.00;99.90;;;;;;5025376;28;20128;-75
2022/07/31 02:39:16;;;;;;;5.78;4.60;;;18.00;99.90;;;;;;5023380;28;20521;-76
2022/07/31 02:41:43;;;;;;;6.38;4.50;;;17.90;99.90;;;;;;5022221;28;20049;-76
2022/07/31 02:44:13;;;;;;;11.85;6.55;;;17.90;99.90;;;;;;5021563;28;20056;-76
2022/07/31 02:46:41;;;;;;;9.88;5.28;;;17.90;99.90;;;;;;5020204;28;20474;-75
2022/07/31 02:49:08;;;;;;;10.18;4.95;;;17.90;99.90;;;;;;5024711;28;20042;-75
2022/07/31 02:51:34;;;;;;;10.40;5.28;;;17.80;99.90;;;;;;5029183;28;20048;-75
2022/07/31 02:53:59;;;;;;;11.85;5.10;;;17.80;99.90;;;;;;5023356;28;20045;-75
2022/07/31 02:56:27;;;;;;;7.32;5.38;;;17.80;99.90;;;;;;5022736;28;20038;-76
2022/07/31 02:58:53;;;;;;;7.78;5.30;;;17.80;99.90;;;;;;5024196;28;20072;-76
2022/07/31 03:01:19;;;;;;;8.77;4.90;;;17.80;99.90;;;;;;5024815;28;20075;-75
2022/07/31 03:03:44;;;;;;;7.47;4.97;;;17.80;99.90;;;;;;5023176;28;20121;-76
2022/07/31 03:06:10;;;;;;;7.40;4.88;;;17.80;99.90;;;;;;5025185;28;20092;-75
2022/07/31 03:08:36;;;;;;;9.30;5.38;;;17.70;99.90;;;;;;5024176;28;20065;-75
2022/07/31 03:11:02;;;;;;;8.18;5.38;;;17.70;99.90;;;;;;5009874;28;20055;-75
2022/07/31 03:13:29;;;;;;;8.13;5.40;;;17.80;99.90;;;;;;5027735;28;20050;-76
2022/07/31 03:15:55;;;;;;;7.40;6.00;;;17.70;99.90;;;;;;5031146;28;20133;-76
2022/07/31 03:18:22;;;;;;;9.38;6.03;;;17.70;99.90;;;;;;5024916;28;20060;-76
2022/07/31 03:20:51;;;;;;;11.65;6.72;;;17.70;99.90;;;;;;5026306;28;20052;-75
2022/07/31 03:23:20;;;;;;;7.32;5.88;;;17.70;99.90;;;;;;5021166;28;20072;-75
2022/07/31 03:25:49;;;;;;;10.05;6.60;;;17.70;99.90;;;;;;5026655;28;20037;-75
2022/07/31 03:28:15;;;;;;;7.65;5.95;;;17.70;99.90;;;;;;5027287;28;20220;-75
2022/07/31 03:30:40;;;;;;;7.43;6.50;;;17.70;99.90;;;;;;5025542;28;20041;-76
2022/07/31 03:33:06;;;;;;;7.85;6.40;;;17.60;99.90;;;;;;5022882;28;20050;-75
2022/07/31 03:35:32;;;;;;;11.45;6.38;;;17.60;99.90;;;;;;5026247;28;20103;-75
2022/07/31 03:37:59;;;;;;;8.82;5.82;;;17.60;99.90;;;;;;5024111;28;20095;-75
2022/07/31 03:40:24;;;;;;;10.10;6.05;;;17.60;99.90;;;;;;5023116;28;20103;-75
2022/07/31 03:42:52;;;;;;;9.23;5.32;;;17.60;99.90;;;;;;5023107;28;20041;-76
2022/07/31 03:45:19;;;;;;;10.50;5.95;;;17.60;99.90;;;;;;5023524;28;20160;-76
2022/07/31 03:47:45;;;;;;;9.35;6.22;;;17.60;99.90;;;;;;5026384;28;20052;-76
2022/07/31 03:50:12;;;;;;;6.40;5.38;;;17.60;99.90;;;;;;5026960;28;20046;-75
2022/07/31 03:52:38;;;;;;;10.60;5.70;;;17.70;99.90;;;;;;5026686;28;20041;-75
2022/07/31 03:55:06;;;;;;;7.35;5.97;;;17.70;99.90;;;;;;5026729;28;20181;-75
2022/07/31 03:57:32;;;;;;;8.40;5.53;;;17.70;99.90;;;;;;5024377;28;20053;-75
2022/07/31 04:00:01;;;;;;;10.00;5.22;;;17.70;99.90;;;;;;5025659;28;20041;-75
2022/07/31 04:02:28;;;;;;;7.60;5.35;;;17.70;99.90;;;;;;5021310;28;20050;-75
2022/07/31 04:04:54;;;;;;;7.65;5.75;;;17.70;99.90;;;;;;5023889;28;20115;-76
2022/07/31 04:07:20;;;;;;;8.02;5.50;;;17.80;99.90;;;;;;5026880;28;20063;-75
2022/07/31 04:09:46;;;;;;;8.23;5.68;;;17.80;99.90;;;;;;5025429;28;20560;-75
2022/07/31 04:12:12;;;;;;;9.68;5.40;;;17.80;99.90;;;;;;5026593;28;20083;-76
2022/07/31 04:14:37;;;;;;;6.95;5.20;;;17.80;99.90;;;;;;5023277;28;20103;-76
2022/07/31 04:17:03;;;;;;;8.13;5.50;;;17.80;99.90;;;;;;5022143;28;20053;-75
2022/07/31 04:19:32;;;;;;;9.25;5.45;;;17.80;99.90;;;;;;5026869;28;20544;-76
2022/07/31 04:21:58;;;;;;;9.75;5.85;;;17.90;99.90;;;;;;5026765;28;20107;-76
2022/07/31 04:24:24;;;;;;;9.45;5.90;;;17.90;99.90;;;;;;5024973;28;20048;-75
2022/07/31 04:26:51;;;;;;;7.97;5.72;;;17.90;99.90;;;;;;5025979;28;20053;-75
2022/07/31 04:29:17;;;;;;;7.45;5.53;;;17.90;99.90;;;;;;5026537;28;20096;-76
2022/07/31 04:31:42;;;;;;;7.75;6.00;;;17.90;99.90;;;;;;5028087;28;20050;-75
2022/07/31 04:34:08;;;;;;;9.00;5.57;;;17.90;99.90;;;;;;5026361;28;20033;-75
2022/07/31 04:36:34;;;;;;;10.23;5.38;;;17.90;99.90;;;;;;5025891;28;20512;-75
2022/07/31 04:39:00;;;;;;;7.90;6.07;;;18.00;99.90;;;;;;5025824;28;20046;-75
2022/07/31 04:41:26;;;;;;;8.82;5.72;;;18.00;99.90;;;;;;5023207;28;20042;-75
2022/07/31 04:43:52;;;;;;;8.27;5.32;;;18.00;99.90;;;;;;5028235;28;20041;-75
2022/07/31 04:46:17;;;;;;;10.52;6.10;;;18.00;99.90;;;;;;5025343;28;20048;-76
2022/07/31 04:48:43;;;;;;;8.15;6.13;;;18.00;99.90;;;;;;5024213;28;20044;-76
2022/07/31 04:51:16;;;;;;;10.70;5.90;;;18.10;99.90;;;;;;5026812;28;20038;-76
2022/07/31 04:53:41;;;;;;;8.70;5.53;;;18.10;99.90;;;;;;5025396;28;20512;-76
2022/07/31 04:58:51;;;;;;;15.00;6.63;;;18.10;99.90;;;;;;5028742;28;20501;-76
2022/07/31 05:01:17;;;;;;;12.13;5.97;;;18.20;99.90;;;;;;5025756;28;20075;-76
2022/07/31 05:03:42;;;;;;;7.70;5.47;;;18.20;99.90;;;;;;5028615;28;20064;-76
2022/07/31 05:06:12;;;;;;;8.07;6.05;;;18.20;99.90;;;;;;5025125;28;20505;-76
2022/07/31 05:08:38;;;;;;;7.28;6.18;;;18.20;99.90;;;;;;5024006;28;20041;-76
2022/07/31 05:14:01;;;;;;;13.07;6.07;;;18.30;99.90;;;;;;5017843;28;20082;-75
2022/07/31 05:16:28;;;;;;;7.93;6.13;;;18.30;99.90;;;;;;5022879;28;20045;-75
2022/07/31 05:18:54;;;;;;;10.80;6.55;;;18.40;99.90;;;;;;5024420;28;20081;-75
2022/07/31 05:21:20;;;;;;;10.48;6.40;;;18.40;99.90;;;;;;5029303;28;20042;-76
2022/07/31 05:23:48;;;;;;;8.18;5.97;;;18.40;99.90;;;;;;5028456;28;20498;-76
2022/07/31 05:26:16;;;;;;;9.15;6.28;;;18.40;99.90;;;;;;5026113;28;20441;-76
2022/07/31 05:28:42;;;;;;;11.13;7.03;;;18.50;99.90;;;;;;5026005;28;20379;-76
2022/07/31 05:31:08;;;;;;;10.27;6.40;;;18.50;99.90;;;;;;5027365;28;20129;-75
2022/07/31 05:33:35;;;;;;;6.88;6.15;;;18.50;99.90;;;;;;5027790;28;20049;-75
2022/07/31 05:36:02;;;;;;;9.88;6.78;;;18.50;99.90;;;;;;5021878;28;20136;-75
2022/07/31 05:38:28;;;;;;;11.15;6.95;;;18.50;99.90;;;;;;5026932;28;20088;-75
2022/07/31 05:40:54;;;;;;;8.40;6.78;;;18.50;99.90;;;;;;5029001;28;20050;-76
2022/07/31 05:43:20;;;;;;;8.98;7.30;;;18.60;99.90;;;;;;5024796;28;20088;-76
2022/07/31 05:45:45;;;;;;;13.57;7.03;;;18.50;99.90;;;;;;5029199;28;20072;-76
2022/07/31 05:48:15;;;;;;;10.90;7.03;;;18.60;99.90;;;;;;5021532;28;20571;-76
2022/07/31 05:50:46;;;;;;;9.68;6.85;;;18.60;99.90;;;;;;5028862;28;20187;-75
2022/07/31 05:53:13;;;;;;;10.88;7.80;;;18.60;99.90;;;;;;5026850;28;20038;-75
2022/07/31 05:55:40;;;;;;;9.25;7.43;;;18.60;99.90;;;;;;5028223;28;20124;-75
2022/07/31 05:58:06;;;;;;;12.70;7.65;;;18.60;99.90;;;;;;5021323;28;20046;-75
2022/07/31 06:00:32;;;;;;;9.20;6.65;;;18.70;99.90;;;;;;5023127;28;20053;-76
2022/07/31 06:03:01;;;;;;;12.35;7.47;;;18.70;99.90;;;;;;5029972;28;20041;-76
2022/07/31 06:05:31;;;;;;;10.18;7.50;;;18.70;99.90;;;;;;5024504;28;20111;-76
2022/07/31 06:08:00;;;;;;;8.40;7.20;;;18.80;99.90;;;;;;5021710;28;20108;-76
2022/07/31 06:10:26;;;;;;;9.35;7.03;;;18.80;99.90;;;;;;5027909;28;20413;-76
2022/07/31 06:12:53;;;;;;;10.07;7.00;;;18.80;99.90;;;;;;5027128;28;20044;-76
2022/07/31 06:15:19;;;;;;;10.95;7.72;;;18.80;99.90;;;;;;5027995;28;20477;-75
2022/07/31 06:17:45;;;;;;;8.98;6.95;;;18.80;99.90;;;;;;5020897;28;20053;-76
2022/07/31 06:20:11;;;;;;;9.85;7.57;;;18.90;99.90;;;;;;5025398;28;20502;-76
2022/07/31 06:22:38;;;;;;;11.13;7.95;;;18.90;99.90;;;;;;5028693;28;20041;-76
2022/07/31 06:25:05;;;;;;;9.45;7.43;;;18.90;99.90;;;;;;5024582;28;20057;-76
2022/07/31 06:27:31;;;;;;;11.80;8.00;;;19.00;99.90;;;;;;5027163;28;20050;-77
2022/07/31 06:29:57;;;;;;;11.63;7.95;;;19.00;99.90;;;;;;5034571;28;20073;-76
2022/07/31 06:32:23;;;;;;;11.00;8.23;;;19.00;99.90;;;;;;5028979;28;20192;-76
2022/07/31 06:34:49;;;;;;;12.30;7.93;;;19.10;99.90;;;;;;5025941;28;20045;-76
2022/07/31 06:37:14;;;;;;;10.95;8.48;;;19.10;99.90;;;;;;5020993;28;20045;-76
2022/07/31 06:39:40;;;;;;;12.45;8.63;;;19.20;99.90;;;;;;5022416;28;20037;-76
2022/07/31 06:42:06;;;;;;;13.35;8.43;;;19.20;99.90;;;;;;5025852;28;20398;-76
2022/07/31 06:44:32;;;;;;;12.95;9.80;;;19.30;99.90;;;;;;5025165;28;20129;-76
2022/07/31 06:46:58;;;;;;;11.82;8.93;;;19.40;99.90;;;;;;5025360;28;20061;-76
2022/07/31 06:49:24;;;;;;;13.45;9.10;;;19.40;99.90;;;;;;5022907;28;20037;-76
2022/07/31 06:51:51;;;;;;;10.52;9.43;;;19.50;99.90;;;;;;5027033;28;20120;-76
2022/07/31 06:54:17;;;;;;;13.80;9.45;;;19.60;99.90;;;;;;5027056;28;20178;-75
2022/07/31 06:56:42;;;;;;;17.25;10.32;;;19.60;99.90;;;;;;5027397;28;20088;-76
2022/07/31 06:59:09;;;;;;;14.13;11.52;;;19.80;99.90;;;;;;5018378;28;20065;-75
2022/07/31 07:01:34;;;;;;;14.95;11.27;;;19.80;99.90;;;;;;5028186;28;20242;-76
2022/07/31 07:04:00;;;;;;;14.68;11.48;;;19.80;99.90;;;;;;5024363;28;20238;-76
2022/07/31 07:06:26;;;;;;;15.05;11.88;;;19.90;99.90;;;;;;5021440;28;20038;-76
2022/07/31 07:08:52;;;;;;;16.02;12.02;;;19.90;99.90;;;;;;5020383;28;20133;-76
2022/07/31 07:11:24;;;;;;;17.25;11.63;;;19.90;99.90;;;;;;5044211;27;20925;-74
2022/07/31 07:13:50;;;;;;;12.52;11.23;;;19.90;99.90;;;;;;5039739;28;20075;-75
2022/07/31 07:16:16;;;;;;;18.80;12.30;;;20.00;99.90;;;;;;5042674;28;20067;-74
2022/07/31 07:18:42;;;;;;;17.27;12.45;;;20.00;99.90;;;;;;5043074;28;20127;-75
2022/07/31 07:21:08;;;;;;;14.00;12.38;;;20.10;99.90;;;;;;5040047;28;20092;-74
2022/07/31 07:23:33;;;;;;;15.43;13.02;;;20.10;99.90;;;;;;5042034;28;20069;-75
2022/07/31 07:25:59;;;;;;;21.15;12.65;;;20.20;99.90;;;;;;5040284;28;20512;-75
2022/07/31 07:28:24;;;;;;;17.05;12.65;;;20.20;99.90;;;;;;5040476;28;20045;-75
2022/07/31 07:30:50;;;;;;;17.55;12.50;;;20.30;99.90;;;;;;5042084;28;20044;-75
2022/07/31 07:33:16;;;;;;;14.98;12.00;;;20.30;99.90;;;;;;5042509;28;20420;-75
2022/07/31 07:35:42;;;;;;;15.85;11.90;;;20.40;99.90;;;;;;5039299;28;20048;-75
2022/07/31 07:38:08;;;;;;;19.92;11.45;;;20.40;99.90;;;;;;5034603;28;20037;-74
2022/07/31 07:40:34;;;;;;;17.08;11.75;;;20.40;99.90;;;;;;5040126;28;20060;-74
2022/07/31 07:43:00;;;;;;;20.77;11.00;;;20.40;99.90;;;;;;5040114;28;20083;-74
2022/07/31 07:45:25;;;;;;;14.80;10.50;;;20.40;99.90;;;;;;5042134;28;20049;-74
2022/07/31 07:47:51;;;;;;;18.00;11.02;;;20.40;99.90;;;;;;5043183;28;20044;-74
2022/07/31 07:50:17;;;;;;;14.77;10.82;;;20.30;99.90;;;;;;5042791;28;20047;-74
2022/07/31 07:52:43;;;;;;;21.23;12.57;;;20.30;99.90;;;;;;5039379;28;20045;-75
2022/07/31 07:55:09;;;;;;;19.88;11.35;;;20.30;99.90;;;;;;5038883;28;20067;-74
2022/07/31 07:57:35;;;;;;;21.63;12.05;;;20.20;99.90;;;;;;5041384;28;20448;-75
2022/07/31 08:00:07;;;;;;;20.75;11.95;;;20.20;99.90;;;;;;5037461;28;20049;-74
2022/07/31 08:02:33;;;;;;;26.55;12.50;;;20.20;99.90;;;;;;5043087;28;20053;-74
2022/07/31 08:04:59;;;;;;;28.75;13.73;;;20.10;99.90;;;;;;5040860;28;20043;-74
2022/07/31 08:07:29;;;;;;;23.83;12.85;;;20.10;99.90;;;;;;5039291;28;20033;-75
2022/07/31 08:09:56;;;;;;;21.35;13.07;;;20.10;99.90;;;;;;5041564;28;20049;-72
2022/07/31 08:12:22;;;;;;;22.73;14.15;;;20.10;99.90;;;;;;5037549;28;20053;-71
2022/07/31 08:14:48;;;;;;;20.75;13.90;;;20.00;99.90;;;;;;5034914;28;20557;-72
2022/07/31 08:17:13;;;;;;;23.63;14.20;;;20.00;99.90;;;;;;5033561;28;20057;-71
2022/07/31 08:19:40;;;;;;;21.67;13.80;;;20.00;99.90;;;;;;5041249;28;20126;-71
2022/07/31 08:22:06;;;;;;;22.27;13.85;;;20.00;99.90;;;;;;5029298;28;20108;-70
2022/07/31 08:24:32;;;;;;;25.15;14.40;;;20.00;99.90;;;;;;5023806;28;20344;-71
2022/07/31 08:29:45;;;;;;;23.13;15.23;;;19.90;99.90;;;;;;5025746;28;20485;-71
2022/07/31 08:32:12;;;;;;;21.20;14.20;;;19.90;99.90;;;;;;5020231;28;20052;-71
2022/07/31 08:34:38;;;;;;;26.05;15.40;;;19.90;99.90;;;;;;5024361;28;20049;-72
2022/07/31 08:37:05;;;;;;;25.45;15.23;;;19.90;99.90;;;;;;5029265;28;20052;-71
2022/07/31 08:39:35;;;;;;;25.38;15.48;;;19.90;99.90;;;;;;5026125;28;20174;-72
2022/07/31 08:42:05;;;;;;;26.42;15.73;;;20.00;99.90;;;;;;5024083;28;20095;-72
2022/07/31 08:44:31;;;;;;;28.88;15.88;;;20.00;99.90;;;;;;5027130;28;20190;-73
2022/07/31 08:46:57;;;;;;;25.17;16.65;;;20.00;99.90;;;;;;5025674;28;20083;-71
2022/07/31 08:49:28;;;;;;;25.50;14.65;;;20.10;99.90;;;;;;5028368;28;20076;-72
2022/07/31 08:51:56;;;;;;;25.25;16.45;;;20.00;99.90;;;;;;5028092;28;20056;-71
2022/07/31 08:54:24;;;;;;;30.42;16.77;;;20.00;99.90;;;;;;5026667;28;20038;-71
2022/07/31 08:56:51;;;;;;;22.85;14.77;;;20.00;99.90;;;;;;5027612;28;20109;-71
2022/07/31 08:59:18;;;;;;;24.92;14.63;;;20.00;99.90;;;;;;5025356;28;20075;-70
2022/07/31 09:01:44;;;;;;;23.05;16.02;;;20.00;99.90;;;;;;5028022;28;20037;-71
2022/07/31 09:04:10;;;;;;;29.48;16.92;;;20.00;99.90;;;;;;5029836;28;20045;-71
2022/07/31 09:06:36;;;;;;;23.35;15.48;;;20.00;99.90;;;;;;5029727;28;20528;-71
2022/07/31 09:09:03;;;;;;;27.90;18.33;;;20.00;99.90;;;;;;5024710;28;20033;-71
2022/07/31 09:11:29;;;;;;;24.17;15.52;;;19.90;99.90;;;;;;5027123;28;20037;-71
2022/07/31 09:13:56;;;;;;;28.83;19.17;;;19.90;99.90;;;;;;5021274;28;20478;-72
2022/07/31 09:16:22;;;;;;;25.95;17.73;;;19.90;99.90;;;;;;5027778;28;20450;-72
2022/07/31 09:19:08;;;;;;;28.25;16.80;;;19.90;99.90;;;;;;5022011;28;20045;-72
2022/07/31 09:21:38;;;;;;;24.20;17.25;;;19.90;99.90;;;;;;5006079;28;20054;-72
2022/07/31 09:24:04;;;;;;;25.65;15.90;;;19.90;99.90;;;;;;5016784;28;20264;-72
2022/07/31 09:26:34;;;;;;;24.90;16.92;;;19.90;99.90;;;;;;5028705;28;20497;-73
2022/07/31 09:29:02;;;;;;;26.92;17.42;;;19.90;99.90;;;;;;5025951;28;20065;-73
2022/07/31 09:31:34;;;;;;;23.52;16.33;;;19.90;99.90;;;;;;5020891;28;20040;-73
2022/07/31 09:34:00;;;;;;;26.55;16.15;;;19.90;99.90;;;;;;5026070;28;20041;-73
2022/07/31 09:36:27;;;;;;;19.55;14.93;;;19.90;99.90;;;;;;5029765;28;20051;-73
2022/07/31 09:38:58;;;;;;;19.17;14.55;;;19.90;99.90;;;;;;5025829;28;20076;-73
2022/07/31 09:41:24;;;;;;;24.25;15.30;;;19.90;99.90;;;;;;5025622;28;20045;-73
2022/07/31 09:44:04;;;;;;;23.70;15.45;;;19.90;99.90;;;;;;5030861;28;20108;-72
2022/07/31 09:46:44;;;;;;;25.48;15.18;;;20.00;99.90;;;;;;5011294;28;20041;-71
2022/07/31 09:49:10;;;;;;;20.13;14.73;;;20.00;99.90;;;;;;5027056;28;20042;-71
2022/07/31 09:51:44;;;;;;;19.90;13.15;;;20.00;99.90;;;;;;5028214;28;20045;-72
2022/07/31 09:54:20;;;;;;;17.55;12.02;;;20.00;99.90;;;;;;5025466;28;20265;-72
2022/07/31 09:56:48;;;;;;;16.25;11.35;;;19.90;99.90;;;;;;5027201;28;20071;-73
2022/07/31 09:59:15;;;;;;;14.63;9.88;;;19.90;99.90;;;;;;5022854;28;20049;-73
2022/07/31 10:01:41;;;;;;;13.52;9.13;;;19.90;99.90;;;;;;5025322;28;20053;-74
2022/07/31 10:04:08;;;;;;;14.25;10.13;;;19.90;99.90;;;;;;5021936;28;20468;-72
2022/07/31 10:06:36;;;;;;;12.30;9.05;;;19.80;99.90;;;;;;5018201;28;20069;-72
2022/07/31 10:09:03;;;;;;;11.40;8.57;;;19.80;99.90;;;;;;5021939;28;20099;-72
2022/07/31 10:11:31;;;;;;;11.93;8.75;;;19.80;99.90;;;;;;5021560;28;20120;-73
2022/07/31 10:14:01;;;;;;;16.33;11.38;;;19.80;99.90;;;;;;5023215;28;20049;-72
2022/07/31 10:16:31;;;;;;;12.70;10.18;;;19.80;99.90;;;;;;5002509;28;20049;-73
2022/07/31 10:19:00;;;;;;;18.85;13.20;;;19.80;99.90;;;;;;5028563;28;20041;-72
2022/07/31 10:21:32;;;;;;;18.08;11.43;;;19.70;99.90;;;;;;5026301;28;20555;-73
2022/07/31 10:24:01;;;;;;;17.30;13.40;;;19.80;99.90;;;;;;5025606;28;20042;-74
2022/07/31 10:26:28;;;;;;;22.20;15.90;;;19.70;99.90;;;;;;5010577;28;20034;-74
2022/07/31 10:28:54;;;;;;;27.20;18.42;;;19.70;99.90;;;;;;5020925;28;20132;-74
2022/07/31 10:31:20;;;;;;;23.55;16.85;;;19.70;99.90;;;;;;5021863;28;20045;-74
2022/07/31 10:33:46;;;;;;;31.13;20.05;;;19.70;99.90;;;;;;5019592;28;20044;-74
2022/07/31 10:36:18;;;;;;;29.48;19.17;;;19.70;99.90;;;;;;5024676;28;20095;-75
2022/07/31 10:38:53;;;;;;;29.60;20.80;;;19.70;99.90;;;;;;5018624;28;20048;-75
2022/07/31 10:41:37;;;;;;;32.55;21.10;;;19.70;99.90;;;;;;5020427;28;20042;-75
2022/07/31 10:44:21;;;;;;;27.58;19.30;;;19.70;99.90;;;;;;5021665;28;20042;-72
2022/07/31 10:46:46;;;;;;;28.92;18.90;;;19.70;99.90;;;;;;5024467;28;20068;-74
2022/07/31 10:49:12;;;;;;;33.22;19.55;;;19.60;99.90;;;;;;5024448;28;20525;-74
2022/07/31 10:51:49;;;;;;;26.45;17.95;;;19.60;99.90;;;;;;5025482;28;20120;-75
2022/07/31 10:54:15;;;;;;;21.95;14.30;;;19.60;99.90;;;;;;5023075;28;20049;-74
2022/07/31 10:56:42;;;;;;;24.30;13.23;;;19.60;99.90;;;;;;5024684;28;20138;-75
2022/07/31 10:59:09;;;;;;;19.25;13.98;;;19.50;99.90;;;;;;5017607;28;20041;-74
2022/07/31 11:01:48;;;;;;;18.38;13.38;;;19.50;99.90;;;;;;5023888;28;20053;-75
2022/07/31 11:04:28;;;;;;;16.77;11.88;;;19.50;99.90;;;;;;5022493;28;20057;-75
2022/07/31 11:06:54;;;;;;;20.33;14.00;;;19.40;99.90;;;;;;5024223;28;20370;-75
2022/07/31 11:09:24;;;;;;;19.23;14.27;;;19.40;99.90;;;;;;5019557;28;20269;-74
2022/07/31 11:11:50;;;;;;;20.70;14.25;;;19.40;99.90;;;;;;5021666;28;20033;-73
2022/07/31 11:14:16;;;;;;;19.85;14.07;;;19.40;99.90;;;;;;5023180;28;20084;-74
2022/07/31 11:16:52;;;;;;;19.73;14.18;;;19.40;99.90;;;;;;5017224;28;20061;-75
2022/07/31 11:19:18;;;;;;;22.65;14.63;;;19.40;99.90;;;;;;5023978;28;20099;-76
2022/07/31 11:21:44;;;;;;;24.15;14.82;;;19.40;99.90;;;;;;5019193;28;20541;-73
2022/07/31 11:24:14;;;;;;;21.02;14.93;;;19.40;99.90;;;;;;5021753;28;20133;-74
2022/07/31 11:26:49;;;;;;;14.90;12.48;;;19.50;99.90;;;;;;5025603;28;20050;-75
2022/07/31 11:29:30;;;;;;;13.63;10.35;;;19.40;99.90;;;;;;5021412;28;20555;-74
2022/07/31 11:31:59;;;;;;;15.55;11.10;;;19.40;99.90;;;;;;5021385;28;20046;-75
2022/07/31 11:34:25;;;;;;;14.10;8.55;;;19.40;99.90;;;;;;5022803;28;20037;-73
2022/07/31 11:36:51;;;;;;;11.77;8.63;;;19.40;99.90;;;;;;5022601;28;20041;-74
2022/07/31 11:39:17;;;;;;;14.48;9.90;;;19.40;99.90;;;;;;5018201;28;20755;-73
2022/07/31 11:41:42;;;;;;;14.32;11.02;;;19.30;99.90;;;;;;5025022;28;20045;-73
2022/07/31 11:44:08;;;;;;;18.05;11.88;;;19.30;99.90;;;;;;5024083;28;20115;-71
2022/07/31 11:46:36;;;;;;;14.70;11.02;;;19.30;99.90;;;;;;5022425;28;20042;-72
2022/07/31 11:49:03;;;;;;;15.35;10.68;;;19.40;99.90;;;;;;5016563;28;20045;-72
2022/07/31 11:51:29;;;;;;;9.30;6.93;;;19.50;99.90;;;;;;5023519;28;20520;-72
2022/07/31 11:53:56;;;;;;;8.25;6.60;;;19.60;99.90;;;;;;5019957;28;20505;-72
2022/07/31 11:56:23;;;;;;;5.57;4.40;;;19.70;99.90;;;;;;5019591;28;20127;-72
2022/07/31 11:58:56;;;;;;;4.32;3.75;;;19.70;99.90;;;;;;5020809;28;20037;-72
2022/07/31 12:01:29;;;;;;;5.35;3.30;;;19.80;99.90;;;;;;5025614;28;20512;-72
2022/07/31 12:03:56;;;;;;;;;;;19.90;99.90;;;;;;5028160;28;20042;-72
2022/07/31 12:06:22;;;;;;;5.60;3.22;;;20.00;99.90;;;;;;5021496;28;19928;-71
2022/07/31 12:08:48;;;;;;;3.42;2.78;;;20.10;99.90;;;;;;5027580;28;20043;-73
2022/07/31 12:11:17;;;;;;;2.90;2.42;;;20.10;99.90;;;;;;5023696;28;20088;-72
2022/07/31 12:13:47;;;;;;;3.08;2.58;;;20.30;99.90;;;;;;5023065;28;20073;-71
2022/07/31 12:16:14;;;;;;;4.45;3.45;;;20.40;99.90;;;;;;5024792;28;20057;-71
2022/07/31 12:18:58;;;;;;;6.25;4.45;;;20.50;99.90;;;;;;5026666;28;20045;-72
2022/07/31 12:21:35;;;;;;;6.05;4.60;;;20.40;99.90;;;;;;5026371;28;20512;-72
2022/07/31 12:24:08;;;;;;;6.82;5.82;;;20.30;99.90;;;;;;5024549;28;20425;-72
2022/07/31 12:26:34;;;;;;;9.38;7.20;;;20.20;99.90;;;;;;5026170;28;20038;-72
2022/07/31 12:29:01;;;;;;;11.52;7.57;;;20.10;99.90;;;;;;5021716;28;20092;-72
2022/07/31 12:31:28;;;;;;;9.70;7.10;;;20.00;99.90;;;;;;5012750;28;20103;-73
2022/07/31 12:33:56;;;;;;;7.85;6.28;;;20.00;99.90;;;;;;5029161;28;20038;-72
2022/07/31 12:36:22;;;;;;;8.13;6.15;;;20.00;99.90;;;;;;5027162;28;20136;-72
2022/07/31 12:39:03;;;;;;;9.75;6.32;;;19.90;99.90;;;;;;5028090;28;20547;-72
2022/07/31 12:41:29;;;;;;;8.80;7.47;;;19.90;99.90;;;;;;5011170;28;20057;-73
2022/07/31 12:44:05;;;;;;;10.77;6.57;;;20.00;99.90;;;;;;5023662;28;20045;-73
2022/07/31 12:46:35;;;;;;;9.88;7.25;;;20.10;99.90;;;;;;5013666;28;20038;-72
2022/07/31 12:49:02;;;;;;;9.63;6.90;;;20.30;99.90;;;;;;5027448;28;20404;-72